| time (UTC) | temp C | wind direction | speed KPH | gust KPH | rain 1hr cm | rain 24hr cm | rain mn cm | humidity % | barometer mb |
| 20260504175515 | 18 | 246 | 0.0 | 8.0 | 0.00 | 0.00 | 0.00 | 78 | 999.1 |
| 20260504174516 | 18 | 196 | 0.0 | 3.2 | 0.00 | 0.00 | 0.00 | 78 | 999.5 |
| 20260504173515 | 18 | 0.0 | 8.0 | 0.00 | 0.00 | 0.00 | 77 | 999.6 | |
| 20260504172515 | 18 | 227 | 1.6 | 9.7 | 0.00 | 0.00 | 0.00 | 74 | 999.8 |
| 20260504171535 | 18 | 224 | 1.6 | 11.3 | 0.00 | 0.00 | 0.00 | 74 | 999.8 |
| 20260504170515 | 18 | 223 | 3.2 | 12.9 | 0.00 | 0.00 | 0.00 | 72 | 999.8 |
| 20260504150515 | 19 | 264 | 0.0 | 11.3 | 0.00 | 0.00 | 0.00 | 62 | 1001.3 |
| 20260504140516 | 21 | 228 | 4.8 | 17.7 | 0.00 | 0.00 | 0.00 | 60 | 1001.4 |
| 20260504130516 | 17 | 226 | 3.2 | 12.9 | 0.00 | 0.00 | 0.00 | 69 | 1002.0 |
| 20260504110536 | 15 | 0.0 | 0.0 | 0.00 | 0.00 | 0.00 | 75 | 1002.2 | |
| 20260504100515 | 15 | 244 | 1.6 | 3.2 | 0.00 | 0.00 | 0.00 | 78 | 1002.5 |
| 20260504081515 | 16 | 0.0 | 0.0 | 0.00 | 0.00 | 0.00 | 76 | 1002.6 | |
| 20260504080514 | 16 | 0.0 | 0.0 | 0.00 | 0.00 | 0.00 | 75 | 1002.4 | |
| 20260504050536 | 18 | 18 | 0.0 | 1.6 | 0.00 | 0.00 | 0.00 | 60 | 1002.3 |
| 20260504045535 | 19 | 17 | 0.0 | 6.4 | 0.00 | 0.00 | 0.00 | 59 | 1002.2 |
| 20260504044515 | 19 | 269 | 0.0 | 4.8 | 0.00 | 0.00 | 0.00 | 59 | 1002.3 |
| 20260504043535 | 19 | 269 | 0.0 | 4.8 | 0.00 | 0.00 | 0.00 | 58 | 1002.4 |
| 20260504042515 | 20 | 238 | 0.0 | 3.2 | 0.00 | 0.00 | 0.00 | 57 | 1002.7 |
| 20260504041515 | 20 | 221 | 0.0 | 8.0 | 0.00 | 0.00 | 0.00 | 56 | 1003.0 |
| 20260504040515 | 20 | 231 | 0.0 | 3.2 | 0.00 | 0.00 | 0.00 | 57 | 1003.3 |
| 20260504035516 | 20 | 276 | 0.0 | 6.4 | 0.00 | 0.00 | 0.00 | 57 | 1002.7 |
| 20260504034515 | 20 | 225 | 1.6 | 11.3 | 0.00 | 0.00 | 0.00 | 57 | 1003.0 |
| 20260504033514 | 20 | 232 | 1.6 | 8.0 | 0.00 | 0.00 | 0.00 | 57 | 1003.4 |
| 20260504032515 | 20 | 227 | 0.0 | 6.4 | 0.00 | 0.00 | 0.00 | 57 | 1003.5 |
| 20260504031517 | 20 | 220 | 0.0 | 6.4 | 0.00 | 0.00 | 0.00 | 56 | 1003.6 |
| 20260504030517 | 21 | 0.0 | 0.0 | 0.00 | 0.00 | 0.00 | 55 | 1003.6 | |
| 20260504025516 | 21 | 225 | 0.0 | 1.6 | 0.00 | 0.00 | 0.00 | 54 | 1003.5 |
| 20260504024515 | 21 | 225 | 0.0 | 1.6 | 0.00 | 0.00 | 0.00 | 54 | 1003.4 |
| 20260504023515 | 21 | 232 | 0.0 | 3.2 | 0.00 | 0.00 | 0.00 | 53 | 1003.5 |
| 20260504022536 | 21 | 244 | 0.0 | 1.6 | 0.00 | 0.00 | 0.00 | 52 | 1003.5 |
| 20260504021515 | 21 | 218 | 0.0 | 9.7 | 0.00 | 0.00 | 0.00 | 51 | 1003.4 |
| 20260504020515 | 21 | 0.0 | 4.8 | 0.00 | 0.00 | 0.00 | 52 | 1003.4 | |
| 20260504015516 | 22 | 293 | 1.6 | 6.4 | 0.00 | 0.00 | 0.00 | 51 | 1003.3 |
| 20260504014535 | 22 | 1 | 1.6 | 4.8 | 0.00 | 0.00 | 0.00 | 51 | 1003.4 |
| 20260504013515 | 22 | 240 | 0.0 | 4.8 | 0.00 | 0.00 | 0.00 | 50 | 1002.9 |
| 20260504012515 | 22 | 232 | 0.0 | 4.8 | 0.00 | 0.00 | 0.00 | 49 | 1002.7 |
| 20260504011515 | 22 | 267 | 0.0 | 4.8 | 0.00 | 0.00 | 0.00 | 48 | 1002.6 |
| 20260504010515 | 22 | 219 | 0.0 | 4.8 | 0.00 | 0.00 | 0.00 | 48 | 1002.5 |
| 20260504005515 | 23 | 226 | 0.0 | 3.2 | 0.00 | 0.00 | 0.00 | 48 | 1002.6 |
| 20260504004636 | 23 | 244 | 0.0 | 6.4 | 0.00 | 0.00 | 0.00 | 47 | 1002.5 |
| 20260504003535 | 23 | 209 | 0.0 | 4.8 | 0.00 | 0.00 | 0.00 | 46 | 1002.6 |
| 20260504002515 | 23 | 234 | 0.0 | 4.8 | 0.00 | 0.00 | 0.00 | 45 | 1002.6 |
| 20260504001515 | 23 | 244 | 1.6 | 6.4 | 0.00 | 0.00 | 0.00 | 44 | 1002.6 |
| 20260504000515 | 24 | 224 | 1.6 | 8.0 | 0.00 | 0.00 | 0.00 | 43 | 1002.7 |
| 20260503235515 | 24 | 221 | 0.0 | 8.0 | 0.00 | 0.00 | 0.00 | 42 | 1002.8 |
| 20260503234514 | 24 | 229 | 0.0 | 6.4 | 0.00 | 0.00 | 0.00 | 42 | 1002.8 |
| 20260503233516 | 25 | 247 | 1.6 | 14.5 | 0.00 | 0.00 | 0.00 | 40 | 1002.8 |
| 20260503232516 | 25 | 242 | 1.6 | 8.0 | 0.00 | 0.00 | 0.00 | 39 | 1002.9 |
| 20260503231517 | 25 | 313 | 0.0 | 9.7 | 0.00 | 0.00 | 0.00 | 39 | 1003.0 |
| 20260503230516 | 25 | 214 | 1.6 | 11.3 | 0.00 | 0.00 | 0.00 | 39 | 1003.0 |
| 20260503225516 | 25 | 280 | 3.2 | 16.1 | 0.00 | 0.00 | 0.00 | 38 | 1003.1 |
| 20260503224516 | 25 | 235 | 1.6 | 9.7 | 0.00 | 0.00 | 0.00 | 38 | 1003.3 |
| 20260503223516 | 25 | 268 | 4.8 | 19.3 | 0.00 | 0.00 | 0.00 | 37 | 1003.4 |
| 20260503222536 | 25 | 257 | 4.8 | 20.9 | 0.00 | 0.00 | 0.00 | 35 | 1003.4 |
| 20260503221516 | 26 | 254 | 3.2 | 14.5 | 0.00 | 0.00 | 0.00 | 36 | 1003.5 |
| 20260503220516 | 26 | 263 | 4.8 | 17.7 | 0.00 | 0.00 | 0.00 | 36 | 1003.6 |
| 20260503215516 | 26 | 256 | 3.2 | 16.1 | 0.00 | 0.00 | 0.00 | 36 | 1003.8 |
| 20260503214516 | 26 | 283 | 3.2 | 12.9 | 0.00 | 0.00 | 0.00 | 35 | 1003.9 |
| 20260503213516 | 26 | 276 | 3.2 | 17.7 | 0.00 | 0.00 | 0.00 | 35 | 1003.9 |
| 20260503212516 | 26 | 323 | 3.2 | 12.9 | 0.00 | 0.00 | 0.00 | 36 | 1004.0 |
| 20260503211536 | 26 | 290 | 3.2 | 27.4 | 0.00 | 0.00 | 0.00 | 35 | 1004.2 |
| 20260503210516 | 26 | 256 | 3.2 | 24.1 | 0.00 | 0.00 | 0.00 | 36 | 1004.2 |
| 20260503205516 | 26 | 251 | 3.2 | 17.7 | 0.00 | 0.00 | 0.00 | 36 | 1004.2 |
| 20260503204516 | 25 | 266 | 3.2 | 24.1 | 0.00 | 0.00 | 0.00 | 35 | 1004.5 |
| 20260503203516 | 25 | 255 | 4.8 | 14.5 | 0.00 | 0.00 | 0.00 | 36 | 1004.6 |
| 20260503202515 | 25 | 251 | 4.8 | 22.5 | 0.00 | 0.00 | 0.00 | 36 | 1004.8 |
| 20260503201538 | 25 | 273 | 3.2 | 17.7 | 0.00 | 0.00 | 0.00 | 38 | 1005.1 |
| 20260503200536 | 25 | 251 | 4.8 | 24.1 | 0.00 | 0.00 | 0.00 | 37 | 1005.3 |
| 20260503195516 | 25 | 223 | 6.4 | 27.4 | 0.00 | 0.00 | 0.00 | 37 | 1005.5 |
| 20260503194535 | 24 | 259 | 4.8 | 20.9 | 0.00 | 0.00 | 0.00 | 37 | 1005.9 |
| 20260503193515 | 24 | 232 | 8.0 | 27.4 | 0.00 | 0.00 | 0.00 | 37 | 1006.1 |
| 20260503192515 | 24 | 231 | 3.2 | 16.1 | 0.00 | 0.00 | 0.00 | 38 | 1006.4 |
| 20260503191515 | 23 | 243 | 6.4 | 24.1 | 0.00 | 0.00 | 0.00 | 37 | 1006.5 |
| 20260503190515 | 23 | 207 | 3.2 | 16.1 | 0.00 | 0.00 | 0.00 | 38 | 1007.0 |
| 20260503185515 | 23 | 247 | 1.6 | 22.5 | 0.00 | 0.00 | 0.00 | 41 | 1007.2 |
| 20260503184535 | 22 | 241 | 4.8 | 29.0 | 0.00 | 0.00 | 0.00 | 39 | 1007.2 |
| 20260503183515 | 22 | 230 | 6.4 | 24.1 | 0.00 | 0.00 | 0.00 | 39 | 1007.5 |
| 20260503182515 | 22 | 228 | 4.8 | 27.4 | 0.00 | 0.00 | 0.00 | 39 | 1007.7 |
| 20260503181515 | 22 | 224 | 6.4 | 20.9 | 0.00 | 0.00 | 0.00 | 40 | 1008.0 |
| 20260503180515 | 22 | 232 | 8.0 | 29.0 | 0.00 | 0.00 | 0.00 | 38 | 1008.3 |